AOT weather

Aosta Airport
Aosta, Valle d'Aosta, Italy

Public forecast

Using degrees Celsius for public forecast. Weather courtesy of forecast.io.

Current aviation weather report (METAR) for Aosta Airport

Report is more than 2 hours old.

Retrieved 2020/07/02 07:50 UTC (5 hours ago):

LIMW 020750Z AUTO VRB01KT 9999 NCD 21/14 Q1014

Closest aviation forecast (TAF) to Aosta Airport

Closest forecast is Turin Airport, 34.4 nm (63.7 km) SSE. Retrieved 2020/07/02 12:21 UTC (20 minutes ago):

TAF LIMF 021100Z 0212/0312 VRB05KT 9999 SCT040 TEMPO 0212/0224 TSRA